Time;durP1;ratioP1;P1;durP2;ratioP2;P2;SDS_P1;SDS_P2;PMS_P1;PMS_P2;Temp;Humidity;BMP_temperature;BMP_pressure;BME280_temperature;BME280_humidity;BME280_pressure;Samples;Min_cycle;Max_cycle;Signal;HPM_P1;HPM_P2
2022/09/14 00:01:08;;;;;;;5.72;1.08;;;14.80;39.00;;;;;;5021937;28;20682;-61
2022/09/14 00:03:34;;;;;;;3.53;1.30;;;14.90;39.70;;;;;;5008848;28;20228;-61
2022/09/14 00:06:05;;;;;;;6.28;1.13;;;14.80;35.30;;;;;;5022906;28;20209;-61
2022/09/14 00:08:33;;;;;;;7.75;1.17;;;14.80;35.70;;;;;;5012104;28;20320;-61
2022/09/14 00:11:05;;;;;;;2.60;0.95;;;14.70;34.20;;;;;;5011354;28;20277;-61
2022/09/14 00:13:31;;;;;;;4.07;1.60;;;14.70;36.10;;;;;;5029017;28;20914;-61
2022/09/14 00:16:03;;;;;;;5.05;1.13;;;14.70;37.40;;;;;;5000398;28;20240;-61
2022/09/14 00:18:30;;;;;;;2.50;1.45;;;14.20;36.30;;;;;;5027501;28;20674;-61
2022/09/14 00:21:00;;;;;;;3.40;1.23;;;14.50;33.20;;;;;;5016425;28;20205;-61
2022/09/14 00:23:27;;;;;;;2.53;1.15;;;14.50;36.70;;;;;;5026957;28;20241;-61
2022/09/14 00:25:55;;;;;;;3.90;1.42;;;14.40;42.00;;;;;;5005155;28;20216;-61
2022/09/14 00:28:22;;;;;;;2.33;1.10;;;14.40;45.00;;;;;;5021888;28;20206;-61
2022/09/14 00:30:49;;;;;;;1.58;1.00;;;14.30;47.30;;;;;;4999909;28;20793;-61
2022/09/14 00:33:16;;;;;;;4.82;1.23;;;14.30;52.10;;;;;;5019952;28;20437;-61
2022/09/14 00:35:42;;;;;;;11.73;1.80;;;14.40;54.70;;;;;;5017400;28;20241;-60
2022/09/14 00:38:09;;;;;;;2.17;1.20;;;14.40;57.20;;;;;;5014937;28;20228;-61
2022/09/14 00:40:36;;;;;;;1.00;0.90;;;14.40;58.20;;;;;;5013113;28;20323;-61
2022/09/14 00:43:13;;;;;;;3.83;1.48;;;14.40;59.70;;;;;;5013481;28;20236;-61
2022/09/14 00:45:40;;;;;;;3.58;1.40;;;14.40;61.70;;;;;;5029127;28;20276;-62
2022/09/14 00:48:07;;;;;;;5.75;1.30;;;14.40;65.00;;;;;;4995414;28;20229;-61
2022/09/14 00:50:34;;;;;;;3.10;1.20;;;14.30;65.70;;;;;;5013783;28;20206;-61
2022/09/14 00:53:01;;;;;;;6.35;1.15;;;14.40;67.70;;;;;;5025045;28;20215;-61
2022/09/14 00:55:28;;;;;;;6.43;1.67;;;14.50;68.90;;;;;;5006207;28;21993;-61
2022/09/14 00:57:55;;;;;;;10.43;1.67;;;14.50;70.80;;;;;;5009519;28;20717;-61
2022/09/14 01:00:26;;;;;;;2.00;1.13;;;14.40;71.60;;;;;;5024497;28;20197;-61
2022/09/14 01:02:53;;;;;;;4.07;1.67;;;14.50;74.90;;;;;;4995789;28;20240;-61
2022/09/14 01:05:27;;;;;;;3.05;1.20;;;14.50;74.90;;;;;;5024216;28;20228;-61
2022/09/14 01:08:21;;;;;;;2.70;1.10;;;14.50;73.80;;;;;;4999937;28;20212;-61
2022/09/14 01:11:07;;;;;;;4.57;1.63;;;14.40;73.60;;;;;;5008889;28;20217;-61
2022/09/14 01:13:46;;;;;;;3.35;1.20;;;14.40;78.80;;;;;;5015764;28;20220;-61
2022/09/14 01:16:20;;;;;;;3.58;1.52;;;14.40;77.60;;;;;;5024431;28;20202;-61
2022/09/14 01:18:52;;;;;;;6.15;1.67;;;14.30;78.50;;;;;;4997625;28;20532;-61
2022/09/14 01:21:23;;;;;;;4.05;1.45;;;14.30;80.00;;;;;;5028192;28;20201;-61
2022/09/14 01:23:58;;;;;;;5.95;1.55;;;11.60;82.50;;;;;;5012079;28;20240;-61
2022/09/14 01:27:09;;;;;;;5.30;1.50;;;14.30;83.00;;;;;;5011425;28;20212;-61
2022/09/14 01:29:42;;;;;;;5.05;1.30;;;14.30;83.00;;;;;;5018327;28;20205;-61
2022/09/14 01:32:15;;;;;;;7.45;1.80;;;14.30;90.00;;;;;;5018191;28;21380;-61
2022/09/14 01:34:46;;;;;;;7.07;1.67;;;14.30;85.30;;;;;;4992893;28;20706;-61
2022/09/14 01:37:17;;;;;;;5.15;1.38;;;14.40;85.90;;;;;;5012460;28;20201;-61
2022/09/14 01:39:48;;;;;;;2.10;1.10;;;14.40;87.90;;;;;;5020204;28;20754;-61
2022/09/14 01:42:18;;;;;;;7.05;1.25;;;14.40;88.40;;;;;;5011132;28;20698;-61
2022/09/14 01:44:49;;;;;;;6.95;1.85;;;14.40;89.50;;;;;;5008125;28;20253;-62
2022/09/14 01:47:19;;;;;;;3.03;1.50;;;14.40;89.00;;;;;;5024008;28;20189;-61
2022/09/14 01:49:50;;;;;;;6.10;1.83;;;14.50;90.40;;;;;;4993672;28;20229;-61
2022/09/14 01:52:23;;;;;;;2.47;1.20;;;14.40;90.50;;;;;;5024577;28;20805;-61
2022/09/14 01:54:54;;;;;;;5.00;1.38;;;14.40;90.90;;;;;;5011144;28;20209;-61
2022/09/14 01:57:25;;;;;;;2.13;1.30;;;14.50;91.10;;;;;;5012720;28;20228;-61
2022/09/14 01:59:57;;;;;;;4.40;1.63;;;14.50;92.20;;;;;;5017997;28;20201;-61
2022/09/14 02:02:28;;;;;;;3.53;1.35;;;14.50;90.90;;;;;;5018400;28;20216;-62
2022/09/14 02:05:01;;;;;;;6.82;1.80;;;14.50;91.50;;;;;;4996121;28;20260;-61
2022/09/14 02:07:28;;;;;;;3.70;1.52;;;14.50;91.40;;;;;;5029138;28;20311;-61
2022/09/14 02:09:56;;;;;;;4.10;1.52;;;14.50;92.30;;;;;;5014510;28;20368;-61
2022/09/14 02:12:23;;;;;;;7.50;2.33;;;14.50;92.40;;;;;;5027409;28;20212;-61
2022/09/14 02:14:52;;;;;;;2.72;1.30;;;14.50;91.80;;;;;;4995158;28;20232;-61
2022/09/14 02:17:21;;;;;;;5.90;1.55;;;14.50;92.00;;;;;;5030493;28;20216;-61
2022/09/14 02:19:54;;;;;;;5.72;1.80;;;14.60;93.00;;;;;;5004304;28;20206;-61
2022/09/14 02:22:21;;;;;;;4.15;1.42;;;14.60;92.00;;;;;;5027784;28;20563;-61
2022/09/14 02:24:49;;;;;;;4.97;1.60;;;14.60;92.70;;;;;;5017363;28;20229;-61
2022/09/14 02:27:16;;;;;;;3.97;1.30;;;14.60;92.20;;;;;;5025373;28;20205;-61
2022/09/14 02:29:43;;;;;;;8.23;1.55;;;;;;;;;;5007980;28;20202;-61
2022/09/14 02:32:21;;;;;;;8.45;1.48;;;14.80;93.70;;;;;;5012713;28;20213;-61
2022/09/14 02:34:58;;;;;;;5.13;1.20;;;14.70;92.60;;;;;;5022479;28;20226;-61
2022/09/14 02:37:35;;;;;;;8.35;1.35;;;13.50;91.60;;;;;;5001337;28;20236;-61
2022/09/14 02:40:11;;;;;;;4.18;1.48;;;14.70;92.30;;;;;;5022490;28;20192;-61
2022/09/14 02:42:52;;;;;;;3.33;1.48;;;14.70;92.20;;;;;;5019699;28;20866;-61
2022/09/14 02:45:28;;;;;;;2.03;1.13;;;16.70;93.20;;;;;;5005457;28;20255;-61
2022/09/14 02:48:03;;;;;;;4.68;1.50;;;14.70;91.50;;;;;;5025232;28;20199;-61
2022/09/14 02:50:39;;;;;;;2.30;1.20;;;14.70;91.80;;;;;;5032758;28;20204;-61
2022/09/14 02:53:12;;;;;;;4.20;1.48;;;14.70;90.90;;;;;;5001600;28;20208;-61
2022/09/14 02:55:46;;;;;;;1.50;1.10;;;14.70;90.60;;;;;;5013599;28;20202;-62
2022/09/14 02:58:14;;;;;;;10.25;1.40;;;14.60;90.50;;;;;;5019434;28;20225;-61
2022/09/14 03:00:43;;;;;;;1.70;1.08;;;14.60;91.00;;;;;;5008791;28;20710;-61
2022/09/14 03:03:12;;;;;;;1.02;1.00;;;14.60;91.40;;;;;;5018535;28;20197;-61
2022/09/14 03:05:41;;;;;;;6.40;1.67;;;14.60;92.60;;;;;;5025788;28;20201;-61
2022/09/14 03:08:09;;;;;;;12.45;1.63;;;14.60;92.90;;;;;;4994206;28;20663;-61
2022/09/14 03:10:36;;;;;;;2.95;1.02;;;14.40;94.40;;;;;;5016349;28;20202;-61
2022/09/14 03:13:03;;;;;;;1.67;1.05;;;14.60;93.70;;;;;;5001752;28;20205;-61
2022/09/14 03:15:30;;;;;;;3.35;1.63;;;14.70;96.50;;;;;;4997812;28;20559;-61
2022/09/14 03:17:57;;;;;;;2.10;1.13;;;14.50;93.80;;;;;;5009149;28;20201;-62
2022/09/14 03:20:26;;;;;;;1.90;1.23;;;14.60;94.90;;;;;;5014887;28;20212;-61
2022/09/14 03:22:54;;;;;;;4.07;1.65;;;14.60;94.40;;;;;;4985739;28;20216;-62
2022/09/14 03:25:22;;;;;;;1.75;1.10;;;14.40;93.10;;;;;;5019583;28;20239;-61
2022/09/14 03:27:50;;;;;;;3.47;1.63;;;14.50;93.30;;;;;;5015200;28;20208;-61
2022/09/14 03:30:18;;;;;;;2.33;1.40;;;14.40;93.40;;;;;;5023551;28;20189;-62
2022/09/14 03:32:45;;;;;;;3.55;1.40;;;14.40;94.10;;;;;;4990492;28;20791;-62
2022/09/14 03:35:12;;;;;;;3.45;1.40;;;14.40;96.50;;;;;;5018526;28;20222;-61
2022/09/14 03:37:41;;;;;;;3.88;1.70;;;14.40;94.90;;;;;;5017138;28;20656;-61
2022/09/14 03:40:11;;;;;;;2.20;1.80;;;14.40;94.20;;;;;;4986882;28;21325;-61
2022/09/14 03:42:42;;;;;;;5.50;2.05;;;14.10;94.30;;;;;;5006820;28;20225;-61
2022/09/14 03:45:10;;;;;;;4.85;2.08;;;14.40;94.40;;;;;;5010737;28;20252;-61
2022/09/14 03:47:37;;;;;;;2.40;1.92;;;14.40;95.00;;;;;;5008014;28;20209;-61
2022/09/14 03:50:04;;;;;;;6.07;2.10;;;14.40;94.50;;;;;;5008155;28;20205;-61
2022/09/14 03:52:31;;;;;;;4.78;2.30;;;14.40;94.20;;;;;;5012822;28;20225;-61
2022/09/14 03:54:58;;;;;;;6.68;2.03;;;14.40;94.80;;;;;;4990593;28;20588;-62
2022/09/14 03:57:26;;;;;;;2.65;1.65;;;14.40;95.70;;;;;;5020700;28;20590;-61
2022/09/14 03:59:53;;;;;;;3.42;2.28;;;14.40;95.60;;;;;;4999433;28;20217;-61
2022/09/14 04:02:20;;;;;;;2.53;1.70;;;14.40;95.80;;;;;;5004767;28;20217;-61
2022/09/14 04:04:47;;;;;;;3.92;1.85;;;14.40;96.20;;;;;;5001999;28;20250;-61
2022/09/14 04:07:14;;;;;;;5.63;1.92;;;14.40;96.70;;;;;;5018361;28;20584;-62
2022/09/14 04:09:41;;;;;;;3.97;2.40;;;14.40;97.00;;;;;;5011773;28;20198;-62
2022/09/14 04:12:08;;;;;;;5.63;1.67;;;14.70;98.10;;;;;;4991041;28;20560;-61
2022/09/14 04:14:36;;;;;;;3.45;1.88;;;14.30;98.80;;;;;;5011320;28;20229;-61
2022/09/14 04:17:05;;;;;;;4.25;1.80;;;14.50;98.10;;;;;;5007970;28;20226;-62
2022/09/14 04:19:32;;;;;;;4.95;2.22;;;14.50;98.20;;;;;;5012608;28;20205;-62
2022/09/14 04:21:59;;;;;;;4.97;2.10;;;14.60;98.50;;;;;;5008127;28;20198;-62
2022/09/14 04:24:25;;;;;;;9.82;2.28;;;14.60;99.10;;;;;;5014539;28;20778;-61
2022/09/14 04:26:52;;;;;;;6.65;2.00;;;14.60;99.20;;;;;;4993408;28;20210;-62
2022/09/14 04:29:19;;;;;;;6.50;2.38;;;14.60;99.30;;;;;;5010035;28;20236;-61
2022/09/14 04:31:47;;;;;;;5.45;1.70;;;14.70;99.90;;;;;;5017122;28;20222;-61
2022/09/14 04:34:14;;;;;;;3.80;2.08;;;14.80;99.90;;;;;;4981393;28;20252;-62
2022/09/14 04:36:41;;;;;;;3.38;1.95;;;14.80;99.50;;;;;;5011760;28;20605;-61
2022/09/14 04:39:10;;;;;;;9.15;2.30;;;14.70;99.20;;;;;;5022053;28;20202;-61
2022/09/14 04:41:37;;;;;;;5.10;1.90;;;14.80;99.20;;;;;;5022329;28;20224;-61
2022/09/14 04:44:03;;;;;;;4.25;1.73;;;14.80;98.80;;;;;;4985108;28;20229;-61
2022/09/14 04:46:34;;;;;;;7.68;2.03;;;14.80;98.80;;;;;;5027353;28;20194;-61
2022/09/14 04:49:03;;;;;;;4.80;1.65;;;14.90;99.90;;;;;;5004742;28;21461;-61
2022/09/14 04:51:31;;;;;;;4.38;2.17;;;14.80;98.70;;;;;;5010840;28;20328;-61
2022/09/14 04:53:59;;;;;;;5.13;2.40;;;14.90;99.90;;;;;;5005146;28;20228;-62
2022/09/14 04:56:27;;;;;;;3.33;2.28;;;14.80;98.70;;;;;;5007771;28;20228;-62
2022/09/14 04:58:56;;;;;;;3.58;1.92;;;14.80;98.80;;;;;;4979667;28;20935;-62
2022/09/14 05:01:25;;;;;;;10.52;2.55;;;14.80;98.80;;;;;;5019722;28;20217;-61
2022/09/14 05:03:53;;;;;;;7.40;2.22;;;18.10;99.90;;;;;;5007892;28;20312;-61
2022/09/14 05:06:24;;;;;;;5.10;2.53;;;14.70;98.30;;;;;;5021288;28;20201;-62
2022/09/14 05:08:52;;;;;;;7.18;2.55;;;14.60;97.90;;;;;;5003617;28;20217;-62
2022/09/14 05:11:20;;;;;;;3.35;2.40;;;14.50;99.20;;;;;;5004984;28;20236;-61
2022/09/14 05:13:47;;;;;;;5.50;2.40;;;14.80;99.20;;;;;;4992688;28;20225;-61
2022/09/14 05:16:16;;;;;;;3.30;2.55;;;14.60;98.10;;;;;;5006148;28;20427;-61
2022/09/14 05:18:43;;;;;;;8.02;3.22;;;14.60;98.00;;;;;;5019997;28;21026;-61
2022/09/14 05:21:12;;;;;;;3.55;2.30;;;14.60;97.90;;;;;;5007718;28;21035;-61
2022/09/14 05:23:41;;;;;;;9.80;2.60;;;;;;;;;;5010210;28;20265;-61
2022/09/14 05:26:08;;;;;;;5.93;2.60;;;14.60;98.10;;;;;;5027559;28;20318;-62
2022/09/14 05:28:36;;;;;;;9.02;2.97;;;14.50;98.00;;;;;;5021994;28;21257;-61
2022/09/14 05:31:05;;;;;;;5.57;2.85;;;16.20;99.00;;;;;;4995321;28;20912;-61
2022/09/14 05:33:32;;;;;;;5.90;2.88;;;14.60;99.40;;;;;;5030580;28;20247;-61
2022/09/14 05:36:04;;;;;;;3.05;2.42;;;14.60;99.10;;;;;;4999705;28;20232;-61
2022/09/14 05:38:32;;;;;;;4.43;2.47;;;14.60;99.00;;;;;;5007254;28;20808;-61
2022/09/14 05:41:00;;;;;;;5.22;2.75;;;14.60;99.60;;;;;;5016644;28;20233;-61
2022/09/14 05:43:28;;;;;;;4.60;2.55;;;14.90;99.90;;;;;;5025997;28;20232;-61
2022/09/14 05:45:56;;;;;;;4.85;2.40;;;14.50;99.90;;;;;;4986402;28;20256;-61
2022/09/14 05:48:22;;;;;;;6.38;2.40;;;14.60;99.70;;;;;;5022226;28;20197;-61
2022/09/14 05:50:49;;;;;;;5.03;2.80;;;14.60;99.40;;;;;;5003959;28;20205;-61
2022/09/14 05:53:16;;;;;;;3.28;2.30;;;14.60;99.30;;;;;;5015069;28;20677;-61
2022/09/14 05:55:42;;;;;;;3.33;2.05;;;14.60;99.30;;;;;;5026596;28;20209;-61
2022/09/14 05:58:12;;;;;;;4.40;2.92;;;14.60;99.70;;;;;;5025435;28;20201;-62
2022/09/14 06:00:39;;;;;;;9.38;2.40;;;14.60;99.40;;;;;;4992882;28;20205;-62
2022/09/14 06:03:06;;;;;;;4.18;2.20;;;15.90;99.90;;;;;;5022166;28;20301;-62
2022/09/14 06:05:34;;;;;;;5.35;2.63;;;14.90;99.90;;;;;;5027589;28;20221;-62
2022/09/14 06:08:01;;;;;;;10.60;2.28;;;14.60;99.10;;;;;;5004622;28;20233;-62
2022/09/14 06:10:28;;;;;;;4.13;2.35;;;14.60;98.80;;;;;;5019236;28;20212;-62
2022/09/14 06:12:55;;;;;;;4.45;2.13;;;14.90;99.90;;;;;;5033242;28;20205;-61
2022/09/14 06:15:24;;;;;;;3.10;2.00;;;14.70;99.00;;;;;;5028159;28;20205;-61
2022/09/14 06:17:50;;;;;;;5.30;2.38;;;14.50;98.70;;;;;;4999717;28;20286;-62
2022/09/14 06:20:17;;;;;;;6.18;2.67;;;14.70;97.70;;;;;;5026890;28;20206;-61
2022/09/14 06:22:44;;;;;;;2.97;2.00;;;14.70;98.10;;;;;;5017681;28;20275;-62
2022/09/14 06:25:11;;;;;;;4.20;2.20;;;14.70;97.40;;;;;;5017034;28;20702;-62
2022/09/14 06:27:38;;;;;;;4.13;2.08;;;14.80;98.70;;;;;;5029180;28;20200;-62
2022/09/14 06:30:06;;;;;;;3.28;2.40;;;14.80;97.90;;;;;;5029410;28;20203;-61
2022/09/14 06:32:34;;;;;;;7.30;1.90;;;15.00;97.70;;;;;;5000804;28;20205;-62
2022/09/14 06:35:02;;;;;;;4.30;2.22;;;15.10;98.00;;;;;;5028171;28;20194;-62
2022/09/14 06:37:29;;;;;;;7.55;2.70;;;15.00;97.10;;;;;;5029942;28;20889;-61
2022/09/14 06:39:56;;;;;;;4.10;2.10;;;15.00;97.00;;;;;;5011580;28;21095;-62
2022/09/14 06:42:22;;;;;;;3.45;2.33;;;15.20;97.30;;;;;;5016620;28;20197;-62
2022/09/14 06:44:49;;;;;;;5.22;1.65;;;15.20;97.00;;;;;;5021014;28;20228;-62
2022/09/14 06:47:16;;;;;;;3.80;1.98;;;15.20;95.60;;;;;;5017771;28;20202;-62
2022/09/14 06:49:44;;;;;;;7.43;2.10;;;14.20;94.40;;;;;;5013646;28;20206;-62
2022/09/14 06:52:11;;;;;;;4.78;2.05;;;15.30;94.50;;;;;;5028555;28;20871;-61
2022/09/14 06:54:37;;;;;;;14.25;2.17;;;15.30;93.60;;;;;;5012861;28;20217;-62
2022/09/14 06:57:06;;;;;;;10.18;1.80;;;15.20;93.80;;;;;;5014152;28;20221;-62
2022/09/14 06:59:33;;;;;;;3.53;2.13;;;15.40;92.80;;;;;;5017833;28;20323;-62
2022/09/14 07:01:59;;;;;;;8.00;2.17;;;15.40;91.30;;;;;;5029247;28;20941;-65
2022/09/14 07:04:26;;;;;;;7.45;1.98;;;15.40;91.20;;;;;;4995856;28;20232;-61
2022/09/14 07:06:54;;;;;;;5.10;2.10;;;15.40;91.60;;;;;;5029040;28;20237;-62
2022/09/14 07:09:21;;;;;;;7.85;1.88;;;15.40;92.10;;;;;;5026742;28;20209;-61
2022/09/14 07:11:48;;;;;;;6.07;2.08;;;15.40;91.60;;;;;;5018287;28;20197;-62
2022/09/14 07:14:16;;;;;;;6.25;2.25;;;15.40;90.80;;;;;;5017066;28;20240;-61
2022/09/14 07:16:42;;;;;;;9.50;2.45;;;15.90;91.60;;;;;;5015199;28;20224;-62
2022/09/14 07:19:12;;;;;;;7.25;2.30;;;15.50;91.20;;;;;;5001126;28;20228;-61
2022/09/14 07:21:39;;;;;;;8.10;2.30;;;15.50;91.10;;;;;;5027555;28;20198;-62
2022/09/14 07:24:07;;;;;;;5.82;2.35;;;15.60;90.60;;;;;;5026647;28;20715;-62
2022/09/14 07:26:40;;;;;;;5.15;2.35;;;15.70;91.00;;;;;;5016610;28;20225;-62
2022/09/14 07:29:09;;;;;;;12.43;2.35;;;16.10;91.20;;;;;;5018448;28;20221;-62
2022/09/14 07:31:39;;;;;;;4.97;2.40;;;15.80;89.80;;;;;;5026810;28;20342;-62
2022/09/14 07:34:06;;;;;;;10.77;3.35;;;15.80;89.30;;;;;;4997004;28;20214;-62
2022/09/14 07:36:35;;;;;;;2.30;2.10;;;15.80;89.10;;;;;;5027120;28;20208;-62
2022/09/14 07:39:04;;;;;;;4.57;2.13;;;16.10;89.90;;;;;;5019426;28;20236;-62
2022/09/14 07:41:33;;;;;;;6.90;2.13;;;15.90;87.30;;;;;;5014978;28;20205;-62
2022/09/14 07:44:01;;;;;;;6.85;2.15;;;15.90;86.30;;;;;;5015551;28;20217;-62
2022/09/14 07:46:31;;;;;;;3.58;2.03;;;16.00;88.40;;;;;;5016857;28;20256;-62
2022/09/14 07:49:00;;;;;;;11.10;2.03;;;16.00;85.70;;;;;;5027328;28;20205;-62
2022/09/14 07:51:28;;;;;;;7.78;2.08;;;16.10;83.00;;;;;;5003506;28;20220;-62
2022/09/14 07:53:56;;;;;;;6.13;1.95;;;16.10;81.60;;;;;;5007761;28;20225;-62
2022/09/14 07:56:24;;;;;;;5.00;2.08;;;16.10;82.00;;;;;;5022821;28;20297;-62
2022/09/14 07:58:57;;;;;;;6.50;1.65;;;16.40;85.20;;;;;;4982481;28;20221;-62
2022/09/14 08:01:24;;;;;;;4.15;2.08;;;16.10;80.00;;;;;;5017786;28;20553;-62
2022/09/14 08:03:51;;;;;;;5.80;2.22;;;16.20;80.20;;;;;;5030478;28;20228;-62
2022/09/14 08:06:20;;;;;;;9.88;2.38;;;16.30;80.10;;;;;;5006382;28;20574;-62
2022/09/14 08:08:49;;;;;;;8.60;1.98;;;16.30;81.00;;;;;;5029533;28;20202;-62
2022/09/14 08:11:18;;;;;;;5.82;2.00;;;16.40;78.90;;;;;;5031031;28;20675;-62
2022/09/14 08:13:46;;;;;;;3.58;1.58;;;16.30;80.40;;;;;;5005315;28;20201;-62
2022/09/14 08:16:15;;;;;;;8.52;1.30;;;16.50;75.80;;;;;;5016906;28;20216;-62
2022/09/14 08:18:42;;;;;;;3.72;1.50;;;16.50;74.80;;;;;;5026122;28;20599;-62
2022/09/14 08:21:11;;;;;;;6.70;1.80;;;16.50;73.90;;;;;;4999944;28;20683;-62
2022/09/14 08:23:38;;;;;;;7.53;1.75;;;16.50;66.30;;;;;;5026937;28;20257;-61
2022/09/14 08:26:07;;;;;;;4.28;2.00;;;16.50;61.90;;;;;;5032173;28;20315;-63
2022/09/14 08:28:35;;;;;;;4.80;1.38;;;16.70;59.20;;;;;;5010497;28;20206;-62
2022/09/14 08:31:03;;;;;;;5.63;1.50;;;16.60;57.60;;;;;;5007512;28;20209;-62
2022/09/14 08:33:32;;;;;;;4.28;1.88;;;16.70;50.00;;;;;;5031323;28;20198;-63
2022/09/14 08:35:59;;;;;;;4.47;1.33;;;16.70;44.50;;;;;;5001826;28;20205;-62
2022/09/14 08:38:27;;;;;;;5.88;1.67;;;16.70;43.30;;;;;;5023334;28;20209;-62
2022/09/14 08:40:54;;;;;;;4.88;1.75;;;16.70;39.90;;;;;;5023925;28;20222;-62
2022/09/14 08:43:24;;;;;;;4.28;1.50;;;16.80;36.60;;;;;;5014585;28;20210;-61
2022/09/14 08:45:55;;;;;;;4.10;1.40;;;16.90;26.30;;;;;;5015075;28;20245;-62
2022/09/14 08:48:27;;;;;;;9.95;1.70;;;17.00;14.90;;;;;;5012837;28;20221;-62
2022/09/14 08:50:55;;;;;;;3.17;1.17;;;17.00;1.00;;;;;;4992697;28;20232;-61
2022/09/14 08:53:24;;;;;;;9.27;1.95;;;16.90;1.00;;;;;;5024256;28;20214;-62
2022/09/14 08:55:54;;;;;;;8.88;1.35;;;17.00;1.00;;;;;;5024445;28;20579;-62
2022/09/14 08:58:30;;;;;;;8.40;1.60;;;17.10;1.00;;;;;;5013660;28;20205;-63
2022/09/14 09:01:02;;;;;;;4.22;1.60;;;17.10;1.00;;;;;;5013118;28;20208;-62
2022/09/14 09:03:51;;;;;;;8.65;1.00;;;17.20;1.00;;;;;;5023955;28;20201;-62
2022/09/14 09:06:26;;;;;;;10.15;1.83;;;17.20;1.00;;;;;;5002392;28;20240;-62
2022/09/14 09:09:00;;;;;;;4.88;1.08;;;17.20;1.00;;;;;;5012187;28;20981;-63
2022/09/14 09:11:36;;;;;;;10.95;1.92;;;17.20;99.90;;;;;;5027043;28;20648;-62
2022/09/14 09:14:10;;;;;;;5.35;1.20;;;17.20;99.90;;;;;;5003172;28;20236;-62
2022/09/14 09:16:38;;;;;;;5.07;0.98;;;17.20;99.90;;;;;;5021207;28;20194;-62
2022/09/14 09:19:10;;;;;;;3.10;1.05;;;18.30;99.90;;;;;;5029618;28;20584;-62
2022/09/14 09:21:43;;;;;;;3.05;0.80;;;17.30;99.90;;;;;;5001366;28;21311;-63
2022/09/14 09:24:20;;;;;;;2.25;1.10;;;17.20;99.90;;;;;;5027329;28;20237;-62
2022/09/14 09:26:47;;;;;;;2.15;1.30;;;17.30;99.90;;;;;;5033540;28;20726;-62
2022/09/14 09:29:14;;;;;;;3.80;1.55;;;;;;;;;;5002119;28;20754;-63
2022/09/14 09:31:46;;;;;;;2.95;1.27;;;17.20;99.90;;;;;;5026243;28;20602;-62
2022/09/14 09:34:16;;;;;;;2.10;0.93;;;17.20;1.00;;;;;;5013165;28;20316;-62
2022/09/14 09:36:48;;;;;;;5.57;1.10;;;17.40;95.50;;;;;;5029963;28;20197;-62
2022/09/14 09:39:16;;;;;;;3.83;1.00;;;17.40;99.90;;;;;;4996029;28;20213;-62
2022/09/14 09:41:46;;;;;;;4.35;1.13;;;17.40;1.00;;;;;;5027877;28;20197;-62
2022/09/14 09:44:13;;;;;;;1.92;0.90;;;;;;;;;;5009759;28;20206;-62
2022/09/14 09:46:46;;;;;;;2.70;0.88;;;17.40;1.00;;;;;;5014609;28;20611;-62
2022/09/14 09:49:20;;;;;;;6.07;1.15;;;17.50;99.90;;;;;;5013614;28;20198;-63
2022/09/14 09:51:49;;;;;;;7.35;1.33;;;17.50;99.90;;;;;;5029012;28;20204;-62
2022/09/14 09:54:23;;;;;;;5.10;1.30;;;17.60;1.00;;;;;;4995964;28;20561;-62
2022/09/14 09:56:54;;;;;;;3.80;1.00;;;17.60;1.00;;;;;;5027112;28;20205;-62
2022/09/14 09:59:29;;;;;;;4.80;1.20;;;17.60;1.00;;;;;;5019166;28;21065;-62
2022/09/14 10:01:57;;;;;;;4.25;1.30;;;17.60;1.00;;;;;;5011219;28;20579;-62
2022/09/14 10:04:28;;;;;;;3.17;1.20;;;17.70;99.90;;;;;;5014643;28;20881;-62
2022/09/14 10:06:57;;;;;;;3.47;1.10;;;17.70;99.90;;;;;;5032830;28;20987;-62
2022/09/14 10:09:27;;;;;;;2.42;1.02;;;17.70;1.00;;;;;;4995406;28;20609;-62
2022/09/14 10:11:59;;;;;;;5.88;1.10;;;17.70;99.90;;;;;;5027124;28;21645;-62
2022/09/14 10:14:30;;;;;;;4.10;1.10;;;17.70;99.90;;;;;;5009943;28;21038;-63
2022/09/14 10:17:06;;;;;;;6.18;1.05;;;17.70;18.50;;;;;;5009945;28;20213;-62
2022/09/14 10:19:33;;;;;;;8.43;1.52;;;17.70;99.90;;;;;;5013818;28;20829;-62
2022/09/14 10:22:18;;;;;;;6.00;1.50;;;17.80;1.00;;;;;;5027312;28;20194;-62
2022/09/14 10:24:57;;;;;;;1.90;0.70;;;17.70;99.90;;;;;;4994419;28;20785;-62
2022/09/14 10:27:38;;;;;;;7.03;1.38;;;17.90;99.90;;;;;;5013182;28;20226;-62
2022/09/14 10:30:08;;;;;;;4.03;1.13;;;17.80;1.00;;;;;;5012229;28;20878;-62
2022/09/14 10:32:37;;;;;;;5.53;1.35;;;17.90;1.00;;;;;;5013979;28;20194;-62
2022/09/14 10:35:13;;;;;;;4.97;1.02;;;17.90;1.00;;;;;;5012583;28;20217;-62
2022/09/14 10:37:53;;;;;;;4.75;1.10;;;17.90;99.90;;;;;;5025877;28;20617;-62
2022/09/14 10:40:28;;;;;;;1.77;0.77;;;18.00;99.90;;;;;;4992216;28;20228;-62
2022/09/14 10:43:05;;;;;;;4.53;1.35;;;18.00;99.90;;;;;;5027041;28;20375;-62
2022/09/14 10:45:35;;;;;;;2.50;0.85;;;18.00;1.00;;;;;;5009546;28;20224;-63
2022/09/14 10:48:22;;;;;;;9.73;1.25;;;18.00;1.00;;;;;;5009638;28;20757;-62
2022/09/14 10:50:58;;;;;;;3.22;1.00;;;18.00;1.00;;;;;;5010493;28;20847;-62
2022/09/14 10:53:40;;;;;;;4.38;1.70;;;17.90;1.00;;;;;;5018599;28;20221;-63
2022/09/14 10:56:13;;;;;;;4.15;1.15;;;18.00;1.00;;;;;;4982224;28;20220;-62
2022/09/14 10:58:58;;;;;;;3.00;0.95;;;18.20;40.00;;;;;;5027425;28;20205;-62
2022/09/14 11:01:48;;;;;;;5.20;1.52;;;18.20;1.00;;;;;;5017775;28;20225;-62
2022/09/14 11:04:29;;;;;;;7.53;1.20;;;18.20;99.90;;;;;;5000796;28;20228;-62
2022/09/14 11:07:06;;;;;;;3.58;1.52;;;18.20;99.90;;;;;;4991979;28;21642;-62
2022/09/14 11:09:43;;;;;;;4.38;1.33;;;18.20;99.90;;;;;;4989256;28;20235;-63
2022/09/14 11:12:18;;;;;;;8.13;1.30;;;18.20;99.90;;;;;;5011695;28;20205;-62
2022/09/14 11:14:59;;;;;;;5.75;1.23;;;18.10;1.00;;;;;;4993360;28;20225;-63
2022/09/14 11:17:43;;;;;;;4.78;1.10;;;18.10;1.00;;;;;;5006181;28;20213;-63
2022/09/14 11:20:24;;;;;;;6.57;1.15;;;18.10;99.90;;;;;;4972195;28;20212;-62
2022/09/14 11:23:02;;;;;;;2.50;0.90;;;18.20;99.90;;;;;;4999076;28;20220;-62
2022/09/14 11:25:39;;;;;;;3.65;0.82;;;18.20;92.10;;;;;;4992176;28;20209;-62
2022/09/14 11:28:12;;;;;;;5.75;1.10;;;18.20;83.80;;;;;;5010222;28;20230;-62
2022/09/14 11:30:42;;;;;;;3.00;1.20;;;18.20;99.90;;;;;;5019401;28;20215;-62
2022/09/14 11:33:20;;;;;;;2.58;0.82;;;18.10;99.90;;;;;;4988083;28;21000;-62
2022/09/14 11:35:51;;;;;;;6.22;1.33;;;18.10;99.90;;;;;;5003114;28;20224;-62
2022/09/14 11:38:21;;;;;;;5.10;1.20;;;18.10;1.00;;;;;;4981946;28;20221;-62
2022/09/14 11:40:57;;;;;;;1.90;0.80;;;18.10;1.00;;;;;;4992261;28;20311;-62
2022/09/14 11:43:30;;;;;;;3.55;0.82;;;18.10;99.90;;;;;;5014897;28;20228;-62
2022/09/14 11:46:06;;;;;;;4.45;1.10;;;18.10;99.90;;;;;;5029500;28;20201;-62
2022/09/14 11:48:37;;;;;;;4.53;1.02;;;18.00;1.00;;;;;;5022950;28;20681;-62
2022/09/14 11:51:09;;;;;;;3.95;0.88;;;18.10;95.70;;;;;;4997459;22;20228;-63
2022/09/14 11:53:36;;;;;;;4.93;1.42;;;17.80;1.00;;;;;;5005724;28;20229;-62
2022/09/14 11:56:05;;;;;;;4.25;1.20;;;18.10;1.00;;;;;;4974102;28;20225;-62
2022/09/14 11:58:32;;;;;;;4.40;1.20;;;18.10;1.00;;;;;;5023716;28;21205;-62
2022/09/14 12:01:05;;;;;;;6.93;1.60;;;18.00;1.00;;;;;;5018667;28;20198;-63
2022/09/14 12:04:06;;;;;;;9.23;1.88;;;17.90;1.00;;;;;;4996428;28;20213;-63
2022/09/14 12:06:46;;;;;;;9.27;1.85;;;17.80;99.90;;;;;;4926492;28;20226;-62
2022/09/14 12:09:49;;;;;;;6.25;2.00;;;17.80;1.50;;;;;;4970703;28;20232;-62
2022/09/14 12:12:34;;;;;;;4.43;1.17;;;17.70;1.00;;;;;;4984192;28;20207;-62
2022/09/14 12:15:04;;;;;;;5.30;1.35;;;17.70;1.00;;;;;;5018656;28;20194;-62
2022/09/14 12:17:34;;;;;;;11.75;1.65;;;17.70;1.00;;;;;;5026731;28;20205;-63
2022/09/14 12:20:35;;;;;;;3.58;1.65;;;17.70;1.00;;;;;;5009469;28;20772;-63
2022/09/14 12:23:12;;;;;;;3.17;1.45;;;17.80;99.90;;;;;;4983283;28;20741;-62
2022/09/14 12:25:52;;;;;;;14.85;3.58;;;18.00;1.00;;;;;;5022670;22;20223;-62
2022/09/14 12:28:46;;;;;;;4.35;1.35;;;18.00;1.00;;;;;;5000160;28;20267;-62
2022/09/14 12:31:30;;;;;;;9.85;1.90;;;17.90;99.90;;;;;;5013100;28;20251;-62
2022/09/14 12:34:17;;;;;;;7.13;1.63;;;18.00;99.90;;;;;;5023944;28;20201;-62
2022/09/14 12:37:00;;;;;;;11.60;1.75;;;17.30;1.00;;;;;;5012025;28;20217;-62
2022/09/14 12:39:29;;;;;;;5.35;1.23;;;18.10;99.90;;;;;;5007434;28;20232;-62
2022/09/14 12:42:03;;;;;;;7.45;1.42;;;18.10;99.90;;;;;;4989050;28;20222;-62
2022/09/14 12:44:37;;;;;;;6.75;1.50;;;18.00;99.90;;;;;;5022639;28;20677;-62
2022/09/14 12:47:56;;;;;;;5.38;1.30;;;17.90;99.90;;;;;;5025056;28;20225;-62
2022/09/14 12:50:23;;;;;;;7.95;1.95;;;18.20;1.00;;;;;;5022352;28;20202;-62
2022/09/14 12:53:19;;;;;;;4.88;2.05;;;18.10;1.00;;;;;;5004710;28;20316;-63
2022/09/14 12:55:56;;;;;;;6.80;1.48;;;18.10;1.00;;;;;;4988376;28;20343;-62
2022/09/14 12:58:36;;;;;;;5.60;1.63;;;18.20;1.00;;;;;;4984495;28;20239;-62
2022/09/14 13:01:52;;;;;;;7.32;1.20;;;18.20;1.00;;;;;;5019437;28;20316;-62
2022/09/14 13:04:25;;;;;;;8.38;1.52;;;18.20;1.00;;;;;;5019242;28;20205;-62
2022/09/14 13:06:55;;;;;;;6.72;1.30;;;18.10;1.00;;;;;;5009620;28;20240;-62
2022/09/14 13:09:24;;;;;;;4.95;1.35;;;18.00;91.30;;;;;;4987958;28;20256;-63
2022/09/14 13:11:56;;;;;;;2.65;1.30;;;18.20;18.50;;;;;;5005525;28;20205;-62